M I D A S
Marine Information and Data Acquisition System
Tripno 903 of the Zeeleeuw from 2005-05-24 06:47:01 to 2005-05-24 14:47:27
Back to CruiseResearch ActivitiesStationsMapUnderway DataData graphs

EquipmentUnitsComment
TimeDGPSUTC
LatitudeDGPSDM.mWGS84
LongitudeDGPSDM.mWGS84
HeadingGyrodeg 
SOGDGPSknotsSpeed over ground
COGDGPSdegCourse over ground
DepthEcho soundermeters200 kHz
Missing or incorrect values are displayed as -999
Navigation data collected by the RV Zeeleeuw from 2005-05-24 05:41:57 to 2005-05-24 14:51:47
Time Latitude Longitude Heading SOG COG Depth
2005-05-24 05:43:02 51°13.597 2°56.109 125.9 -999 91 -999
2005-05-24 05:44:02 51°13.597 2°56.109 125.6 -999 106 -999
2005-05-24 05:45:02 51°13.597 2°56.109 125.6 -999 336 -999
2005-05-24 05:46:02 51°13.597 2°56.109 125.1 -999 268 -999
2005-05-24 05:47:02 51°13.597 2°56.109 124.8 -999 106 -999
2005-05-24 05:48:02 51°13.597 2°56.108 125 -999 3 -999
2005-05-24 05:49:02 51°13.597 2°56.108 125.5 -999 339 -999
2005-05-24 05:50:02 51°13.597 2°56.109 126 -999 236 -999
2005-05-24 05:51:02 51°13.597 2°56.109 124.9 -999 219 -999
2005-05-24 05:52:02 51°13.597 2°56.108 125.3 -999 124 -999
2005-05-24 05:53:02 51°13.597 2°56.109 125 0.1 95 -999
2005-05-24 05:54:02 51°13.598 2°56.108 125.3 0.1 316 -999
2005-05-24 05:55:01 51°13.598 2°56.109 125.1 -999 32 -999
2005-05-24 05:56:02 51°13.598 2°56.108 125.3 -999 313 -999
2005-05-24 05:57:02 51°13.598 2°56.109 125.2 0.1 125 -999
2005-05-24 05:58:02 51°13.598 2°56.109 125.9 -999 130 -999
2005-05-24 05:59:02 51°13.598 2°56.109 125.9 -999 251 -999
2005-05-24 06:00:02 51°13.599 2°56.109 125.8 -999 297 -999
2005-05-24 06:01:02 51°13.599 2°56.108 125.5 -999 307 -999
2005-05-24 06:02:02 51°13.599 2°56.108 125.5 -999 331 -999
2005-05-24 06:03:02 51°13.599 2°56.108 125.4 -999 308 -999
2005-05-24 06:04:02 51°13.598 2°56.108 125.2 -999 150 -999
2005-05-24 06:05:02 51°13.598 2°56.108 125.2 -999 298 -999
2005-05-24 06:06:02 51°13.598 2°56.108 125.2 -999 309 -999
2005-05-24 06:07:02 51°13.598 2°56.108 125.3 -999 182 -999
2005-05-24 06:08:02 51°13.598 2°56.108 125.2 -999 128 -999
2005-05-24 06:09:02 51°13.597 2°56.108 125.3 -999 90 -999
2005-05-24 06:10:02 51°13.597 2°56.108 125.5 -999 352 -999
2005-05-24 06:11:02 51°13.596 2°56.107 125.4 -999 232 -999
2005-05-24 06:12:02 51°13.596 2°56.107 125.9 -999 215 -999
2005-05-24 06:13:01 51°13.597 2°56.107 126.1 -999 276 -999
2005-05-24 06:14:02 51°13.597 2°56.107 125.5 -999 302 -999
2005-05-24 06:15:01 51°13.598 2°56.108 125.6 -999 141 -999
2005-05-24 06:16:02 51°13.598 2°56.109 125.5 -999 283 -999
2005-05-24 06:17:01 51°13.598 2°56.109 125.5 -999 285 -999
2005-05-24 06:18:01 51°13.598 2°56.109 125.2 -999 193 -999
2005-05-24 06:19:02 51°13.598 2°56.109 125.4 0.1 128 -999
2005-05-24 06:20:01 51°13.598 2°56.109 125.6 -999 271 -999
2005-05-24 06:21:02 51°13.599 2°56.109 126.9 -999 354 -999
2005-05-24 06:22:00 51°13.6 2°56.109 126.2 -999 186 4.8
2005-05-24 06:23:01 51°13.6 2°56.109 126.1 -999 6 4.8
2005-05-24 06:24:00 51°13.599 2°56.109 126.1 -999 333 4.8
2005-05-24 06:25:01 51°13.599 2°56.109 126.4 0.1 154 4.7
2005-05-24 06:26:01 51°13.599 2°56.109 125.1 -999 237 4.8
2005-05-24 06:27:00 51°13.598 2°56.109 118.8 0.1 206 4.8
2005-05-24 06:28:01 51°13.597 2°56.106 110.8 0.4 276 4.8
2005-05-24 06:29:01 51°13.607 2°56.063 112.6 3.1 292 -999
2005-05-24 06:30:02 51°13.631 2°55.964 113.9 4.3 291 -999
2005-05-24 06:31:02 51°13.665 2°55.854 126.4 4.8 300 -999
2005-05-24 06:32:02 51°13.719 2°55.75 136.3 5.2 312 -999
2005-05-24 06:33:01 51°13.784 2°55.673 158.1 4.9 332 -999
2005-05-24 06:34:02 51°13.867 2°55.642 182.1 5 356 -999
2005-05-24 06:35:01 51°13.937 2°55.664 208.5 2.9 21 -999
2005-05-24 06:36:01 51°13.941 2°55.609 277.9 4.6 289 7.9
2005-05-24 06:37:01 51°14.021 2°55.525 338.1 6.7 334 7.7
2005-05-24 06:38:01 51°14.131 2°55.435 334.5 7.8 331 8.3
2005-05-24 06:39:01 51°14.244 2°55.31 324.7 9.2 319 8.4
2005-05-24 06:40:01 51°14.352 2°55.118 315.2 9.9 311 8.4
2005-05-24 06:41:01 51°14.482 2°54.939 330.5 11 322 8.2
2005-05-24 06:42:01 51°14.665 2°54.798 346.3 12.5 339 7.5
2005-05-24 06:43:01 51°14.863 2°54.729 357.8 12.4 344 7.1
2005-05-24 06:44:01 51°15.058 2°54.622 351 12 342 6.3
2005-05-24 06:45:01 51°15.242 2°54.519 351.2 11.9 342 6.7
2005-05-24 06:46:01 51°15.435 2°54.422 351.1 12.2 342 5.4
2005-05-24 06:47:01 51°15.636 2°54.339 359.3 12.8 351 8
2005-05-24 06:48:01 51°15.85 2°54.263 353.6 13.2 343 8.7
2005-05-24 06:49:01 51°16.047 2°54.178 352.5 10.9 342 9.2
2005-05-24 06:50:01 51°16.152 2°54.207 54.4 5 52 9.5
2005-05-24 06:51:01 51°16.207 2°54.287 43.6 3.8 33 9.6
2005-05-24 06:52:01 51°16.241 2°54.301 19.1 0.8 319 9.6
2005-05-24 06:53:01 51°16.25 2°54.287 357.3 0.9 304 9.6
2005-05-24 06:54:01 51°16.254 2°54.264 342 0.9 286 9.7
2005-05-24 06:55:01 51°16.259 2°54.24 329.3 0.9 281 9.6
2005-05-24 06:56:01 51°16.259 2°54.215 318 1 274 9.6
2005-05-24 06:57:01 51°16.259 2°54.191 310.9 0.9 270 9.6
2005-05-24 06:58:01 51°16.259 2°54.167 310.3 0.9 265 9.6
2005-05-24 06:59:01 51°16.264 2°54.132 313.4 2.8 291 9.6
2005-05-24 07:00:01 51°16.349 2°53.902 310.6 12.9 301 9.7
2005-05-24 07:01:01 51°16.471 2°53.604 315.2 13.6 308 9.9
2005-05-24 07:02:01 51°16.623 2°53.335 326.9 13.5 318 9.9
2005-05-24 07:03:01 51°16.788 2°53.103 326.6 13.2 318 9
2005-05-24 07:04:01 51°16.938 2°52.872 321.9 12.2 313 7.2
2005-05-24 07:05:01 51°17.108 2°52.669 335.1 13 324 7.9
2005-05-24 07:06:01 51°17.274 2°52.459 332.8 13 324 8.2
2005-05-24 07:07:01 51°17.445 2°52.239 331.7 13 323 8.7
2005-05-24 07:08:01 51°17.616 2°52.024 329.9 13 321 8.6
2005-05-24 07:09:01 51°17.784 2°51.81 330.9 13 321 8.5
2005-05-24 07:10:01 51°17.953 2°51.59 330.9 13.2 321 8.7
2005-05-24 07:11:01 51°18.124 2°51.366 330.6 13.4 321 9.9
2005-05-24 07:12:01 51°18.29 2°51.146 329.5 11.6 319 11.1
2005-05-24 07:13:01 51°18.389 2°51.052 5.4 5.9 343 11.8
2005-05-24 07:14:01 51°18.459 2°51.047 9.9 4.1 355 12.2
2005-05-24 07:15:01 51°18.498 2°51.054 34 0.5 341 12.3
2005-05-24 07:16:01 51°18.503 2°51.054 41.5 0.3 19 12.4
2005-05-24 07:17:01 51°18.509 2°51.058 40.7 0.4 21 12.5
2005-05-24 07:18:01 51°18.516 2°51.059 29.2 0.4 350 12.5
2005-05-24 07:19:01 51°18.522 2°51.049 12.1 0.6 305 12.4
2005-05-24 07:20:01 51°18.525 2°51.03 354 0.8 283 12.4
2005-05-24 07:21:01 51°18.524 2°51.009 338.9 0.9 261 12.5
2005-05-24 07:22:01 51°18.527 2°50.957 300.2 3.4 275 12.5
2005-05-24 07:23:01 51°18.483 2°50.814 239.1 9.7 233 12.5
2005-05-24 07:24:01 51°18.315 2°50.604 213.3 14.5 212 12.2
2005-05-24 07:25:01 51°18.103 2°50.4 213.2 14.8 211 11.9
2005-05-24 07:26:01 51°17.88 2°50.24 202.9 14.7 202 11.5
2005-05-24 07:27:01 51°17.653 2°50.091 203.3 14.7 202 11.1
2005-05-24 07:28:01 51°17.428 2°49.941 203.4 14.7 202 10.3
2005-05-24 07:29:01 51°17.2 2°49.791 203.9 14.7 202 9.3
2005-05-24 07:30:01 51°16.974 2°49.642 204.6 14.5 203 8.5
2005-05-24 07:31:01 51°16.746 2°49.509 200.7 14.7 199 8.9
2005-05-24 07:32:01 51°16.52 2°49.33 214.9 15.1 213 13.5
2005-05-24 07:33:01 51°16.324 2°49.095 219.9 14.6 217 13.2
2005-05-24 07:34:01 51°16.133 2°48.859 221.6 14.5 219 12.5
2005-05-24 07:35:01 51°15.945 2°48.614 221.4 14.6 219 11.7
2005-05-24 07:36:01 51°15.761 2°48.371 220.6 14.5 219 10.5
2005-05-24 07:37:01 51°15.575 2°48.129 221.2 14.3 220 9.6
2005-05-24 07:38:01 51°15.39 2°47.887 220.5 14.2 219 8.7
2005-05-24 07:39:01 51°15.213 2°47.637 222.3 14.2 221 8.2
2005-05-24 07:40:01 51°15.034 2°47.386 224.3 14.4 223 8.4
2005-05-24 07:41:01 51°14.847 2°47.134 222 14.8 222 10.4
2005-05-24 07:42:01 51°14.664 2°46.873 222.6 14.7 223 11.5
2005-05-24 07:43:01 51°14.484 2°46.608 222.5 14.8 222 11.3
2005-05-24 07:44:01 51°14.305 2°46.345 222.4 14.8 222 10.7
2005-05-24 07:45:01 51°14.122 2°46.081 222.7 14.7 222 9.7
2005-05-24 07:46:01 51°13.943 2°45.825 222.1 14.3 222 8.7
2005-05-24 07:47:01 51°13.77 2°45.57 225.3 13.9 226 7.4
2005-05-24 07:48:01 51°13.597 2°45.331 219 13.6 217 6.7
2005-05-24 07:49:01 51°13.418 2°45.107 219.9 14 217 7.6
2005-05-24 07:50:01 51°13.217 2°44.886 220.1 14.8 220 10.4
2005-05-24 07:51:01 51°13.03 2°44.64 220.5 14.6 219 10.8
2005-05-24 07:52:01 51°12.844 2°44.391 221.1 14.6 220 11
2005-05-24 07:53:01 51°12.657 2°44.143 220.6 14.5 220 10.9
2005-05-24 07:54:01 51°12.472 2°43.893 220.9 14.6 220 10.3
2005-05-24 07:55:01 51°12.288 2°43.644 221.3 14.6 220 9.5
2005-05-24 07:56:01 51°12.106 2°43.395 221.5 14.4 220 8.7
2005-05-24 07:57:01 51°11.926 2°43.153 222 14 221 7.2
2005-05-24 07:58:01 51°11.757 2°42.897 224.7 14.1 222 7.6
2005-05-24 07:59:01 51°11.568 2°42.665 221.6 14.6 221 9.3
2005-05-24 08:00:01 51°11.385 2°42.418 221 14.4 222 10.1
2005-05-24 08:01:01 51°11.232 2°42.202 218.3 11.9 220 10.6
2005-05-24 08:02:01 51°11.129 2°42.054 225.7 6.7 228 11
2005-05-24 08:03:02 51°11.112 2°42.004 263.4 0.8 260 -999
2005-05-24 08:04:02 51°11.111 2°41.999 294.9 0.2 249 4.9
2005-05-24 08:05:01 51°11.11 2°41.993 312 0.3 239 11.1
2005-05-24 08:06:01 51°11.109 2°41.985 329.7 0.3 255 11.1
2005-05-24 08:07:01 51°11.108 2°41.975 341.1 0.4 279 11
2005-05-24 08:08:01 51°11.11 2°41.965 344 0.5 291 11.1
2005-05-24 08:09:01 51°11.112 2°41.954 340.3 0.5 303 11.1
2005-05-24 08:10:01 51°11.117 2°41.941 331.7 0.6 306 11.1
2005-05-24 08:11:01 51°11.142 2°41.872 300.4 4 305 11
2005-05-24 08:12:01 51°11.107 2°41.651 243.4 11 243 11
2005-05-24 08:13:01 51°10.991 2°41.341 241.6 14.2 242 11.1
2005-05-24 08:14:01 51°10.883 2°41.003 246 14.3 245 11.4
2005-05-24 08:15:01 51°10.785 2°40.658 246.2 14.4 245 11.8
2005-05-24 08:16:01 51°10.687 2°40.311 247.2 14.5 246 12.3
2005-05-24 08:17:01 51°10.608 2°39.946 254.6 14.5 253 12.9
2005-05-24 08:18:01 51°10.535 2°39.582 254.3 14.5 253 13.5
2005-05-24 08:19:01 51°10.461 2°39.215 254.3 14.5 252 14.2
2005-05-24 08:20:01 51°10.388 2°38.847 255 14.6 253 15.1
2005-05-24 08:21:01 51°10.313 2°38.481 254.1 14.5 252 14.7
2005-05-24 08:22:01 51°10.236 2°38.114 254 14.7 252 15.3
2005-05-24 08:23:01 51°10.17 2°37.741 259.6 14.6 257 16.1
2005-05-24 08:24:01 51°10.115 2°37.362 260.7 14.8 258 16.5
2005-05-24 08:25:01 51°10.08 2°36.976 265.2 14.7 262 16.8
2005-05-24 08:26:01 51°10.05 2°36.595 267.8 14.6 266 16.6
2005-05-24 08:27:01 51°10.054 2°36.205 277.2 14.6 275 16.5
2005-05-24 08:28:01 51°10.143 2°35.865 312 13.7 307 12.4
2005-05-24 08:29:01 51°10.338 2°35.76 3.1 12.5 359 10
2005-05-24 08:30:01 51°10.537 2°35.843 23.6 12.4 18 9.6
2005-05-24 08:31:01 51°10.722 2°35.991 33.3 12.4 28 9.8
2005-05-24 08:32:01 51°10.903 2°36.151 34.4 12.5 30 10.2
2005-05-24 08:33:01 51°11.083 2°36.315 33.6 12.4 29 10.7
2005-05-24 08:34:01 51°11.25 2°36.507 41.1 12.3 38 10.8
2005-05-24 08:35:01 51°11.418 2°36.694 38.1 12.3 32 11
2005-05-24 08:36:01 51°11.593 2°36.867 36.6 12.5 31 11.1
2005-05-24 08:37:01 51°11.772 2°37.033 35.5 12.4 28 11.1
2005-05-24 08:38:01 51°11.947 2°37.203 37.8 12.4 31 11
2005-05-24 08:39:01 51°12.123 2°37.371 36 12.2 30 11
2005-05-24 08:40:01 51°12.297 2°37.536 34.5 12.3 28 11.1
2005-05-24 08:41:01 51°12.476 2°37.689 34.8 12.2 27 11.5
2005-05-24 08:42:01 51°12.658 2°37.84 33.8 12.3 27 11.8
2005-05-24 08:43:01 51°12.837 2°37.997 34.3 12.3 28 12.2
2005-05-24 08:44:01 51°13.018 2°38.149 34.8 12.3 28 12.9
2005-05-24 08:45:01 51°13.201 2°38.304 33 12.4 28 13.2
2005-05-24 08:46:01 51°13.384 2°38.458 34.2 12.3 25 13.5
2005-05-24 08:47:01 51°13.574 2°38.589 29 12.6 22 13.5
2005-05-24 08:48:01 51°13.769 2°38.715 27.6 12.5 21 12.9
2005-05-24 08:49:01 51°13.971 2°38.804 16 12.7 9 11.6
2005-05-24 08:50:01 51°14.181 2°38.79 359.6 12.8 351 12.1
2005-05-24 08:51:01 51°14.385 2°38.688 346.9 12.9 336 16.8
2005-05-24 08:52:01 51°14.571 2°38.511 338.9 13 327 16.2
2005-05-24 08:53:01 51°14.754 2°38.325 338.7 13 328 15.5
2005-05-24 08:54:01 51°14.937 2°38.14 337.1 13.1 327 14
2005-05-24 08:55:01 51°15.117 2°37.948 337.5 13 327 10.6
2005-05-24 08:56:01 51°15.295 2°37.741 329.6 13.4 319 10.3
2005-05-24 08:57:01 51°15.469 2°37.505 329.6 13.7 320 10.7
2005-05-24 08:58:01 51°15.645 2°37.275 329.4 13.9 320 11.8
2005-05-24 08:59:01 51°15.824 2°37.058 334.9 13.5 328 11.8
2005-05-24 09:00:01 51°16.034 2°36.924 349.5 13.5 339 19.6
2005-05-24 09:01:01 51°16.249 2°36.833 357 13.4 346 25.8
2005-05-24 09:02:01 51°16.444 2°36.771 1.1 10 349 26.1
2005-05-24 09:03:01 51°16.573 2°36.757 15.2 6.2 358 25.7
2005-05-24 09:04:01 51°16.618 2°36.744 35.8 0.9 301 25.7
2005-05-24 09:05:01 51°16.622 2°36.733 65.3 0.4 291 25.7
2005-05-24 09:06:01 51°16.62 2°36.728 86.3 0.2 247 25.8
2005-05-24 09:07:01 51°16.617 2°36.722 101.9 0.4 230 25.6
2005-05-24 09:08:01 51°16.609 2°36.712 117.5 0.7 224 25.6
2005-05-24 09:09:01 51°16.601 2°36.699 126.8 0.7 230 25.8
2005-05-24 09:10:01 51°16.594 2°36.684 131.3 0.7 235 25.9
2005-05-24 09:11:01 51°16.588 2°36.669 136.6 -999 -999 26.1
2005-05-24 09:12:01 51°16.583 2°36.658 135.7 0.4 231 26.3
2005-05-24 09:13:01 51°16.525 2°36.675 170.5 4.9 175 26.3
2005-05-24 09:14:01 51°16.423 2°36.532 243.1 10.6 237 26.6
2005-05-24 09:15:01 51°16.476 2°36.211 312.3 13.6 304 26.5
2005-05-24 09:16:01 51°16.636 2°35.961 333.8 13.5 320 26
2005-05-24 09:17:01 51°16.824 2°35.772 339.7 13.5 325 24.4
2005-05-24 09:18:01 51°17.01 2°35.591 337.3 12.9 326 16.5
2005-05-24 09:19:01 51°17.179 2°35.373 329.7 13.2 319 11.7
2005-05-24 09:20:01 51°17.342 2°35.136 324.1 13.4 313 11.2
2005-05-24 09:21:01 51°17.492 2°34.87 318.7 13.6 310 14
2005-05-24 09:22:01 51°17.638 2°34.59 318.7 14 311 20.5
2005-05-24 09:23:01 51°17.785 2°34.309 318.9 13.7 310 25.7
2005-05-24 09:24:01 51°17.93 2°34.029 318.7 13.9 310 27.8
2005-05-24 09:25:01 51°18.078 2°33.745 319.7 13.8 311 26.5
2005-05-24 09:26:01 51°18.225 2°33.467 319.1 13.7 309 21.3
2005-05-24 09:27:01 51°18.372 2°33.192 319.6 13.6 310 20
2005-05-24 09:28:01 51°18.516 2°32.913 316.9 13.6 309 24.2
2005-05-24 09:29:01 51°18.655 2°32.628 315.7 13.7 306 27.7
2005-05-24 09:30:01 51°18.792 2°32.335 315.5 13.8 306 29.9
2005-05-24 09:31:01 51°18.932 2°32.047 318.6 13.7 309 29.1
2005-05-24 09:32:02 51°19.078 2°31.764 318.9 13.9 309 30
2005-05-24 09:33:01 51°19.222 2°31.485 320.3 13.7 310 29.8
2005-05-24 09:34:01 51°19.366 2°31.201 319.2 13.6 310 29.8
2005-05-24 09:35:01 51°19.509 2°30.919 317.7 13.9 306 27.1
2005-05-24 09:36:01 51°19.655 2°30.638 320 13.8 307 19.3
2005-05-24 09:37:01 51°19.802 2°30.366 320 13.7 310 14.7
2005-05-24 09:38:01 51°19.914 2°30.165 325.1 8.6 312 14.1
2005-05-24 09:39:01 51°20.005 2°30.068 332.6 6.4 327 12.9
2005-05-24 09:40:01 51°20.037 2°30.037 4 1.1 328 13.8
2005-05-24 09:41:01 51°20.057 2°30.029 2.1 1.3 351 14.3
2005-05-24 09:42:01 51°20.078 2°30.018 348 1.2 337 15.1
2005-05-24 09:43:01 51°20.095 2°30.003 334.7 1.1 336 15.4
2005-05-24 09:44:01 51°20.106 2°29.99 321.5 0.8 334 15
2005-05-24 09:45:01 51°20.115 2°29.981 310.4 0.6 324 14.3
2005-05-24 09:46:02 51°20.131 2°29.957 318.9 2 317 15.5
2005-05-24 09:47:02 51°20.197 2°29.976 46.5 5.5 49 20.1
2005-05-24 09:48:01 51°20.255 2°30.195 72.2 11.8 65 13.4
2005-05-24 09:49:01 51°20.33 2°30.511 74.4 12.6 67 11.4
2005-05-24 09:50:01 51°20.443 2°30.796 57.5 12.6 53 11.4
2005-05-24 09:51:02 51°20.572 2°31.08 57.7 13.4 55 14
2005-05-24 09:52:01 51°20.697 2°31.364 58.7 13.1 54 13.6
2005-05-24 09:53:01 51°20.807 2°31.66 61.9 12.8 62 15.4
2005-05-24 09:54:01 51°20.907 2°31.961 66.6 13.2 62 20.6
2005-05-24 09:55:01 51°21.018 2°32.249 59.5 12.5 54 22.9
2005-05-24 09:56:02 51°21.121 2°32.544 64.5 12.6 63 26.5
2005-05-24 09:57:02 51°21.23 2°32.841 61.1 13 60 27.1
2005-05-24 09:58:02 51°21.337 2°33.132 61.1 12.7 59 29
2005-05-24 09:59:01 51°21.441 2°33.432 62.6 13.1 61 29
2005-05-24 10:00:01 51°21.554 2°33.727 60.2 13.2 55 30.6
2005-05-24 10:01:01 51°21.669 2°34.024 60.1 12.9 61 28.8
2005-05-24 10:02:01 51°21.782 2°34.323 58.7 13.1 54 29
2005-05-24 10:03:01 51°21.891 2°34.632 61.2 13.3 58 30.2
2005-05-24 10:04:01 51°21.998 2°34.935 63.4 13.1 62 29
2005-05-24 10:05:01 51°22.105 2°35.234 64.3 12.8 57 29.7
2005-05-24 10:06:01 51°22.208 2°35.537 64.4 13.4 65 29.5
2005-05-24 10:07:02 51°22.299 2°35.861 66.7 13 65 29.7
2005-05-24 10:08:01 51°22.398 2°36.174 65.2 13.5 63 29.2
2005-05-24 10:09:01 51°22.5 2°36.49 62.8 13.3 64 29.4
2005-05-24 10:10:01 51°22.597 2°36.796 64.5 13.1 63 28.7
2005-05-24 10:11:02 51°22.696 2°37.112 67.5 13.3 66 29.1
2005-05-24 10:12:01 51°22.794 2°37.426 63.8 13.4 64 29.4
2005-05-24 10:13:01 51°22.891 2°37.744 64.4 13 67 29.6
2005-05-24 10:14:01 51°22.993 2°38.046 60.9 12.8 59 28.6
2005-05-24 10:15:01 51°23.081 2°38.356 66.8 12.4 65 29.7
2005-05-24 10:16:01 51°23.165 2°38.675 68 13 66 29.7
2005-05-24 10:17:01 51°23.247 2°38.996 69.3 13 68 28.6
2005-05-24 10:18:01 51°23.334 2°39.319 68.7 13.1 67 29.8
2005-05-24 10:19:02 51°23.42 2°39.645 67.5 13.3 66 29.4
2005-05-24 10:20:01 51°23.506 2°39.961 67.4 13 69 30.5
2005-05-24 10:21:02 51°23.593 2°40.292 68.8 13.7 64 29.1
2005-05-24 10:22:02 51°23.688 2°40.617 64.7 13 62 29.6
2005-05-24 10:23:01 51°23.772 2°40.944 71.3 13.8 70 30.5
2005-05-24 10:24:01 51°23.862 2°41.271 64.7 13.7 62 29.1
2005-05-24 10:25:01 51°23.963 2°41.58 63.6 13.1 62 24.9
2005-05-24 10:26:02 51°24.06 2°41.893 65.4 13 64 26.1
2005-05-24 10:27:01 51°24.155 2°42.212 66.1 13.4 63 27.8
2005-05-24 10:28:01 51°24.256 2°42.531 64.9 13.5 63 25.2
2005-05-24 10:29:01 51°24.359 2°42.846 63.7 13.5 63 24.6
2005-05-24 10:30:02 51°24.46 2°43.166 64.4 13.6 63 25
2005-05-24 10:31:01 51°24.556 2°43.488 65.3 13.3 64 25.2
2005-05-24 10:32:01 51°24.658 2°43.812 63.8 13.8 63 21.3
2005-05-24 10:33:01 51°24.757 2°44.137 68.8 13.4 66 22.9
2005-05-24 10:34:02 51°24.84 2°44.47 69.9 13 67 27.8
2005-05-24 10:35:01 51°24.922 2°44.798 67.4 13.4 72 27.9
2005-05-24 10:36:02 51°25.015 2°45.122 65.2 13.6 63 27.9
2005-05-24 10:37:02 51°25.1 2°45.455 68.1 13.3 65 26.3
2005-05-24 10:38:01 51°25.183 2°45.784 71.4 13.1 68 26.2
2005-05-24 10:39:02 51°25.27 2°46.116 72.4 13.6 72 25.6
2005-05-24 10:40:01 51°25.34 2°46.463 74.7 13.2 73 26.1
2005-05-24 10:41:02 51°25.414 2°46.807 74.9 13.6 73 26
2005-05-24 10:42:01 51°25.492 2°47.152 70.2 13.8 67 26.6
2005-05-24 10:43:02 51°25.583 2°47.49 66.5 13.5 64 26.6
2005-05-24 10:44:01 51°25.686 2°47.807 63.8 13.7 60 24.7
2005-05-24 10:45:01 51°25.796 2°48.106 61.3 11.7 59 24.7
2005-05-24 10:46:02 51°25.896 2°48.295 41.6 7.6 38 24.9
2005-05-24 10:47:01 51°25.973 2°48.396 45.3 5.4 44 24.7
2005-05-24 10:48:02 51°26.014 2°48.485 70.2 1.6 54 24.8
2005-05-24 10:49:02 51°26.025 2°48.5 92.1 0.9 56 23.7
2005-05-24 10:50:01 51°26.037 2°48.522 108.7 1.2 54 24.7
2005-05-24 10:51:01 51°26.048 2°48.546 113.3 1.2 64 25
2005-05-24 10:52:01 51°26.057 2°48.576 120.8 1.3 65 25.3
2005-05-24 10:53:02 51°26.064 2°48.606 128.1 1.3 72 24.5
2005-05-24 10:54:01 51°26.073 2°48.636 130.9 1.3 63 25
2005-05-24 10:55:02 51°26.082 2°48.667 130.1 1.3 72 25.3
2005-05-24 10:56:01 51°26.091 2°48.7 127.7 1.3 67 24.7
2005-05-24 10:57:02 51°26.102 2°48.732 128.5 1.4 61 25
2005-05-24 10:58:01 51°26.112 2°48.763 130.8 1.4 61 25
2005-05-24 10:59:01 51°26.124 2°48.797 128.8 1.5 69 24.8
2005-05-24 11:00:02 51°26.112 2°48.948 102.2 9.8 95 24.9
2005-05-24 11:01:01 51°26.169 2°49.285 75.5 14.2 71 24.9
2005-05-24 11:02:02 51°26.237 2°49.648 82.2 14.2 76 24.4
2005-05-24 11:03:01 51°26.298 2°50.006 78 14.3 76 24.5
2005-05-24 11:04:01 51°26.368 2°50.366 78.6 14.3 71 25.1
2005-05-24 11:05:01 51°26.411 2°50.738 84.5 14.3 78 24.9
2005-05-24 11:06:01 51°26.457 2°51.115 83.1 14.5 76 26.4
2005-05-24 11:07:01 51°26.504 2°51.489 85.5 14.6 77 27.4
2005-05-24 11:08:01 51°26.549 2°51.862 83.4 14.2 81 28.3
2005-05-24 11:09:02 51°26.591 2°52.236 85.3 14.3 81 27.7
2005-05-24 11:10:01 51°26.627 2°52.606 85.4 14.3 81 29.8
2005-05-24 11:11:01 51°26.67 2°52.979 87 14.2 84 31.1
2005-05-24 11:12:01 51°26.711 2°53.356 86 14.6 82 32.1
2005-05-24 11:13:01 51°26.799 2°53.714 73.5 14.5 66 30.3
2005-05-24 11:14:01 51°26.893 2°54.068 74.2 14.4 68 26.1
2005-05-24 11:15:02 51°26.965 2°54.44 79.6 14.4 75 26.8
2005-05-24 11:16:01 51°27.032 2°54.808 82.8 14.6 72 29.3
2005-05-24 11:17:01 51°27.092 2°55.185 83.8 14.4 80 29.6
2005-05-24 11:18:01 51°27.151 2°55.556 81.5 14.5 77 30.6
2005-05-24 11:19:01 51°27.215 2°55.929 81 14.4 75 29.1
2005-05-24 11:20:02 51°27.28 2°56.303 80.9 14.2 77 29.2
2005-05-24 11:21:01 51°27.342 2°56.664 79.8 13.9 75 23.9
2005-05-24 11:22:01 51°27.401 2°57.041 80.5 14.7 76 27.7
2005-05-24 11:23:02 51°27.459 2°57.422 81.2 14.8 76 28.1
2005-05-24 11:24:02 51°27.521 2°57.8 81.7 14.1 77 26.2
2005-05-24 11:25:01 51°27.579 2°58.166 80.9 14.5 78 21.3
2005-05-24 11:26:01 51°27.636 2°58.542 79.8 15 76 21
2005-05-24 11:27:02 51°27.691 2°58.922 81.5 14.4 76 20.8
2005-05-24 11:28:01 51°27.749 2°59.3 80.7 15.1 79 20
2005-05-24 11:29:02 51°27.808 2°59.678 78.1 14.7 74 20.2
2005-05-24 11:30:01 51°27.859 3°0.061 82.3 14.7 78 20.7
2005-05-24 11:31:01 51°27.914 3°0.439 79.1 14.5 75 23.2
2005-05-24 11:32:02 51°27.971 3°0.824 81.7 14.6 78 23.8
2005-05-24 11:33:02 51°28.034 3°1.202 82.1 14.8 75 24.7
2005-05-24 11:34:02 51°28.103 3°1.581 77.7 14.5 72 25.3
2005-05-24 11:35:01 51°28.162 3°1.953 83.4 14.8 77 25.5
2005-05-24 11:36:02 51°28.218 3°2.338 82.3 14.7 77 25.6
2005-05-24 11:37:01 51°28.277 3°2.714 80.1 14.7 75 25.5
2005-05-24 11:38:01 51°28.307 3°3.101 92.5 14.5 82 25.1
2005-05-24 11:39:01 51°28.273 3°3.32 141.1 5.8 119 24.7
2005-05-24 11:40:01 51°28.252 3°3.438 113.4 4.6 92 24.4
2005-05-24 11:41:01 51°28.266 3°3.523 98.5 2.1 61 24.2
2005-05-24 11:42:01 51°28.287 3°3.557 92.6 1.9 50 24.4
2005-05-24 11:43:02 51°28.309 3°3.6 84 2.1 54 24.3
2005-05-24 11:44:01 51°28.328 3°3.653 95.1 2.3 63 24
2005-05-24 11:45:02 51°28.347 3°3.711 111.7 2.3 67 24.1
2005-05-24 11:46:01 51°28.364 3°3.77 124.3 2.4 63 24
2005-05-24 11:47:01 51°28.381 3°3.829 132.2 2.3 66 23.9
2005-05-24 11:48:02 51°28.398 3°3.89 132.3 2.5 67 24.2
2005-05-24 11:49:01 51°28.415 3°3.948 132 2.4 68 23.6
2005-05-24 11:50:02 51°28.433 3°4.007 131.1 2.4 64 23.9
2005-05-24 11:51:01 51°28.408 3°4.151 129.5 8.6 113 22.9
2005-05-24 11:52:02 51°28.293 3°4.454 136.6 13.7 127 21.7
2005-05-24 11:53:01 51°28.149 3°4.738 138.7 13.9 131 18.8
2005-05-24 11:54:02 51°28.003 3°5.029 138.3 14.1 127 16.8
2005-05-24 11:55:02 51°27.855 3°5.316 138.1 14.1 128 16.8
2005-05-24 11:56:02 51°27.704 3°5.601 139.5 14 131 17.1
2005-05-24 11:57:02 51°27.555 3°5.888 138.8 14 130 16.6
2005-05-24 11:58:01 51°27.408 3°6.173 138.7 14.2 128 16
2005-05-24 11:59:01 51°27.26 3°6.463 139.7 14.1 131 15.6
2005-05-24 12:00:02 51°27.109 3°6.751 139 14.1 131 15
2005-05-24 12:01:02 51°26.96 3°7.039 140.4 14.2 128 14.3
2005-05-24 12:02:01 51°26.813 3°7.322 139.1 14 128 13.8
2005-05-24 12:03:02 51°26.664 3°7.61 139.1 14 131 13.2
2005-05-24 12:04:02 51°26.526 3°7.877 141.8 11 130 12.5
2005-05-24 12:05:01 51°26.459 3°8.085 110.8 7.2 94 12.7
2005-05-24 12:06:02 51°26.481 3°8.247 76.3 6 72 13.1
2005-05-24 12:07:01 51°26.507 3°8.336 91.9 1.7 48 13.4
2005-05-24 12:08:02 51°26.527 3°8.358 84.8 1.6 43 -999
2005-05-24 12:09:01 51°26.545 3°8.396 77.6 1.9 52 13.4
2005-05-24 12:10:02 51°26.566 3°8.444 80.7 2.3 57 13.5
2005-05-24 12:11:02 51°26.584 3°8.499 97.4 2.4 64 13.6
2005-05-24 12:12:02 51°26.599 3°8.556 108.6 2.4 67 13.8
2005-05-24 12:13:02 51°26.614 3°8.613 115.9 2.3 66 13.7
2005-05-24 12:14:01 51°26.621 3°8.69 120.6 4 93 13.7
2005-05-24 12:15:01 51°26.546 3°8.945 126.9 13.8 118 13.4
2005-05-24 12:16:01 51°26.432 3°9.272 127.4 14.3 119 12.3
2005-05-24 12:17:01 51°26.314 3°9.601 129.1 14.3 120 11.5
2005-05-24 12:18:01 51°26.193 3°9.932 128.5 14.4 119 11
2005-05-24 12:19:02 51°26.069 3°10.261 127.7 14.3 122 10.8
2005-05-24 12:20:01 51°25.948 3°10.586 128.5 14.3 121 10.5
2005-05-24 12:21:01 51°25.827 3°10.914 127.7 14.3 121 10.1
2005-05-24 12:22:02 51°25.7 3°11.237 128.2 14.2 123 10
2005-05-24 12:23:02 51°25.581 3°11.568 125.5 14.4 115 11.2
2005-05-24 12:24:01 51°25.52 3°11.94 105.4 14.8 96 12
2005-05-24 12:25:01 51°25.521 3°12.338 91.4 15.1 88 11.7
2005-05-24 12:26:02 51°25.528 3°12.74 97.5 15.3 91 11.8
2005-05-24 12:27:02 51°25.539 3°13.137 90 14.9 85 11.8
2005-05-24 12:28:02 51°25.566 3°13.534 89 14.9 83 11.4
2005-05-24 12:29:01 51°25.588 3°13.924 88.5 14.8 83 11.2
2005-05-24 12:30:02 51°25.611 3°14.32 90 14.9 86 10.7
2005-05-24 12:31:02 51°25.633 3°14.716 90 15.1 86 10.7
2005-05-24 12:32:02 51°25.643 3°15.111 91 15.1 86 10.9
2005-05-24 12:33:02 51°25.67 3°15.509 89.3 14.9 86 10.8
2005-05-24 12:34:02 51°25.695 3°15.903 87.6 14.9 84 10.9
2005-05-24 12:35:02 51°25.72 3°16.298 87.8 15.1 83 10.9
2005-05-24 12:36:02 51°25.747 3°16.695 87 14.9 84 10.9
2005-05-24 12:37:01 51°25.777 3°17.089 87.8 15.1 82 11
2005-05-24 12:38:02 51°25.802 3°17.462 89.5 12.7 84 11.3
2005-05-24 12:39:02 51°25.84 3°17.692 63.9 7.8 62 11.4
2005-05-24 12:40:02 51°25.908 3°17.775 9.3 3.4 31 11.4
2005-05-24 12:41:02 51°25.927 3°17.821 340.8 1.9 72 11.3
2005-05-24 12:42:02 51°25.945 3°17.864 330.7 1.9 51 11.4
2005-05-24 12:43:02 51°25.966 3°17.896 311 1.7 39 11.2
2005-05-24 12:44:02 51°25.988 3°17.92 294.9 1.4 35 11.3
2005-05-24 12:45:02 51°26.007 3°17.933 276.4 1.1 19 11.4
2005-05-24 12:46:02 51°26.022 3°17.939 261.7 0.8 12 11.4
2005-05-24 12:47:02 51°26.031 3°17.948 250 0.7 28 11.3
2005-05-24 12:48:01 51°26.03 3°17.947 222.1 1.2 198 11.3
2005-05-24 12:49:02 51°25.921 3°17.87 217.6 10.2 210 11.2
2005-05-24 12:50:02 51°25.759 3°17.687 221.8 12 217 11.5
2005-05-24 12:51:02 51°25.609 3°17.484 227.6 11.7 220 12
2005-05-24 12:52:02 51°25.462 3°17.284 228.4 11.5 221 12.4
2005-05-24 12:53:01 51°25.319 3°17.085 227.4 11.5 220 13
2005-05-24 12:54:02 51°25.17 3°16.884 227.1 11.5 220 14.5
2005-05-24 12:55:01 51°25.027 3°16.689 227.8 11.4 221 16.4
2005-05-24 12:56:01 51°24.882 3°16.486 227.8 11.7 222 18.1
2005-05-24 12:57:01 51°24.729 3°16.283 226.8 12 219 20
2005-05-24 12:58:02 51°24.575 3°16.092 226.9 11.2 217 20.5
2005-05-24 12:59:01 51°24.429 3°15.909 227.9 11.4 219 20.2
2005-05-24 13:00:02 51°24.281 3°15.711 228.1 11.6 220 16.1
2005-05-24 13:01:02 51°24.15 3°15.49 239.1 11.5 234 14.5
2005-05-24 13:02:02 51°24.039 3°15.241 240.2 11.5 235 14.6
2005-05-24 13:03:02 51°23.928 3°14.992 239.6 11.5 234 14.5
2005-05-24 13:04:02 51°23.776 3°14.814 214.3 11.9 204 13.6
2005-05-24 13:05:02 51°23.595 3°14.687 215.7 11.7 207 13.2
2005-05-24 13:06:01 51°23.426 3°14.539 217.9 11.7 209 13.2
2005-05-24 13:07:02 51°23.283 3°14.334 231.9 11.4 225 12.6
2005-05-24 13:08:02 51°23.147 3°14.125 232.7 11.3 225 12.9
2005-05-24 13:09:02 51°23.011 3°13.913 231.5 11.4 224 13.2
2005-05-24 13:10:02 51°22.874 3°13.705 232 11.2 223 13.5
2005-05-24 13:11:02 51°22.746 3°13.489 234.7 11.1 227 13.8
2005-05-24 13:12:02 51°22.64 3°13.318 231.9 6 221 14.5
2005-05-24 13:13:01 51°22.611 3°13.256 255.1 1.5 254 14.7
2005-05-24 13:14:02 51°22.611 3°13.258 249.6 0.4 83 14.8
2005-05-24 13:15:02 51°22.617 3°13.278 251.2 1 64 14.8
2005-05-24 13:16:02 51°22.626 3°13.307 252.5 1.4 64 14.6
2005-05-24 13:17:02 51°22.638 3°13.343 254.6 1.6 61 14.6
2005-05-24 13:18:02 51°22.653 3°13.383 261.3 1.8 57 14.4
2005-05-24 13:19:02 51°22.668 3°13.419 262.6 1.7 58 14.3
2005-05-24 13:20:02 51°22.683 3°13.456 262.6 1.6 58 14.2
2005-05-24 13:21:02 51°22.659 3°13.362 250.4 8.7 246 14.2
2005-05-24 13:22:02 51°22.589 3°13.102 251.2 11 247 14.9
2005-05-24 13:23:02 51°22.528 3°12.823 258 11.1 254 15.5
2005-05-24 13:24:02 51°22.485 3°12.536 259.7 11.1 259 16.2
2005-05-24 13:25:02 51°22.479 3°12.244 270.5 11 270 16.7
2005-05-24 13:26:02 51°22.438 3°11.967 249.5 10.9 243 17.3
2005-05-24 13:27:02 51°22.346 3°11.716 244.7 10.8 241 17.9
2005-05-24 13:28:02 51°22.258 3°11.464 244.7 10.9 242 18.3
2005-05-24 13:29:01 51°22.17 3°11.21 244.5 11.1 241 19.1
2005-05-24 13:30:02 51°22.085 3°10.946 244.4 11.2 242 20.4
2005-05-24 13:31:02 51°22.002 3°10.681 244.5 11.1 244 18.1
2005-05-24 13:32:02 51°21.923 3°10.417 244.8 11 245 17.1
2005-05-24 13:33:02 51°21.846 3°10.156 245.6 10.9 247 15.9
2005-05-24 13:34:02 51°21.767 3°9.896 244.3 11 243 14.8
2005-05-24 13:35:02 51°21.681 3°9.638 242.8 11 242 14
2005-05-24 13:36:02 51°21.595 3°9.377 243.7 11.2 242 13.7
2005-05-24 13:37:02 51°21.502 3°9.117 240.1 11.2 239 12.3
2005-05-24 13:38:02 51°21.397 3°8.866 237.7 11.3 236 11.5
2005-05-24 13:39:02 51°21.29 3°8.618 236.6 11.4 234 11
2005-05-24 13:40:02 51°21.179 3°8.373 235.9 11.3 234 10.7
2005-05-24 13:41:02 51°21.072 3°8.128 235.9 11.2 233 10.4
2005-05-24 13:42:02 51°20.963 3°7.884 236.5 11.2 234 10.4
2005-05-24 13:43:02 51°20.85 3°7.636 235.8 11.5 234 10.1
2005-05-24 13:44:02 51°20.73 3°7.393 234.8 11.6 233 10.1
2005-05-24 13:45:02 51°20.616 3°7.15 234 11.5 232 10
2005-05-24 13:46:02 51°20.493 3°6.911 233 11.5 230 9.9
2005-05-24 13:46:51 51°20.391 3°6.72 231.9 11.3 229 9.9
2005-05-24 13:47:47 51°20.279 3°6.504 232.2 11.4 230 10
2005-05-24 13:48:46 51°20.158 3°6.282 232.3 11.3 229 9.9
2005-05-24 13:49:47 51°20.042 3°6.037 236.6 11.4 235 10.1
2005-05-24 13:50:46 51°19.932 3°5.795 235.8 11.4 234 10.2
2005-05-24 13:51:46 51°19.834 3°5.538 239.4 11.3 237 10.1
2005-05-24 13:52:47 51°19.728 3°5.281 238.3 11.4 236 10.3
2005-05-24 13:53:47 51°19.623 3°5.026 239 11.6 238 10.1
2005-05-24 13:54:46 51°19.519 3°4.775 238.2 11.4 236 10.2
2005-05-24 13:55:47 51°19.416 3°4.513 239.2 11.5 238 10.2
2005-05-24 13:56:46 51°19.316 3°4.262 239.2 11.3 238 10.3
2005-05-24 13:57:46 51°19.217 3°4.007 239.9 11.3 238 10.4
2005-05-24 13:58:47 51°19.116 3°3.747 239.4 11.3 238 10.4
2005-05-24 13:59:46 51°19.017 3°3.496 239.7 11.3 238 10.2
2005-05-24 14:00:46 51°18.914 3°3.244 238.4 11.3 236 10
2005-05-24 14:01:47 51°18.808 3°2.987 238.5 11.3 237 9.9
2005-05-24 14:02:46 51°18.707 3°2.74 238 11.3 237 9.9
2005-05-24 14:03:46 51°18.603 3°2.488 238.4 11.4 237 10
2005-05-24 14:04:46 51°18.498 3°2.231 238.8 11.5 238 10.1
2005-05-24 14:05:46 51°18.396 3°1.976 238.9 11.5 237 10.2
2005-05-24 14:06:46 51°18.289 3°1.719 238 11.5 237 10.5
2005-05-24 14:07:46 51°18.184 3°1.463 238 11.4 237 10.4
2005-05-24 14:08:46 51°18.081 3°1.207 238.4 11.4 238 10.6
2005-05-24 14:09:46 51°17.978 3°0.957 238 11.2 236 10.7
2005-05-24 14:10:46 51°17.877 3°0.711 238.2 11.3 237 10.7
2005-05-24 14:11:46 51°17.775 3°0.459 239.1 11.2 238 10.8
2005-05-24 14:12:46 51°17.674 3°0.21 238.2 11.2 236 11.3
2005-05-24 14:13:46 51°17.573 2°59.965 238.3 11.2 237 11.3
2005-05-24 14:14:47 51°17.468 2°59.712 237.8 11.3 236 11.4
2005-05-24 14:15:46 51°17.365 2°59.464 237.8 11.3 237 11.4
2005-05-24 14:16:47 51°17.261 2°59.21 238.4 11.4 237 11.4
2005-05-24 14:17:46 51°17.159 2°58.957 237.9 11.6 237 11.3
2005-05-24 14:18:46 51°17.052 2°58.698 238.1 11.7 237 11.3
2005-05-24 14:19:47 51°16.944 2°58.438 238.7 11.5 237 11.4
2005-05-24 14:20:46 51°16.841 2°58.188 238.7 11.4 237 11.3
2005-05-24 14:21:46 51°16.736 2°57.937 238.6 11.4 237 11.4
2005-05-24 14:22:46 51°16.632 2°57.688 239.4 11.2 237 11.4
2005-05-24 14:23:47 51°16.532 2°57.435 239.6 11.3 238 11.4
2005-05-24 14:24:46 51°16.432 2°57.183 238.8 11.4 238 11.4
2005-05-24 14:25:47 51°16.331 2°56.925 239.3 11.3 238 11.3
2005-05-24 14:26:47 51°16.229 2°56.669 239.5 11.5 238 11.2
2005-05-24 14:27:46 51°16.128 2°56.417 239 11.3 237 11.2
2005-05-24 14:28:46 51°16.026 2°56.16 239.1 11.5 238 11.1
2005-05-24 14:29:46 51°15.921 2°55.908 237.5 11.6 236 11
2005-05-24 14:30:46 51°15.812 2°55.656 237.7 11.6 236 10.8
2005-05-24 14:31:47 51°15.687 2°55.417 229.3 11.6 226 10.8
2005-05-24 14:32:46 51°15.53 2°55.234 215.2 11.8 209 10.4
2005-05-24 14:33:46 51°15.348 2°55.119 201.6 11.7 198 10.1
2005-05-24 14:34:46 51°15.157 2°55.064 195.2 11.9 189 10.1
2005-05-24 14:35:47 51°14.959 2°55.019 195.9 11.7 188 10.7
2005-05-24 14:36:46 51°14.768 2°54.977 193.7 11.8 187 11
2005-05-24 14:37:46 51°14.589 2°54.983 185.4 10.3 175 11.5
2005-05-24 14:38:46 51°14.418 2°55.028 172.7 10.6 163 11.9
2005-05-24 14:39:46 51°14.291 2°55.202 132 10.1 131 11.9
2005-05-24 14:40:46 51°14.205 2°55.355 138.9 6.8 134 12.4
2005-05-24 14:41:46 51°14.115 2°55.455 155.4 6.1 152 11.8
2005-05-24 14:42:46 51°14.037 2°55.506 165.1 4.5 160 11.8
2005-05-24 14:43:47 51°13.987 2°55.535 166.2 2.8 156 11.2
2005-05-24 14:44:46 51°13.95 2°55.567 158.9 2.6 152 11.2
2005-05-24 14:45:46 51°13.884 2°55.61 164.1 5.8 160 11.2
2005-05-24 14:46:46 51°13.777 2°55.69 154.4 7.4 151 5
2005-05-24 14:47:46 51°13.708 2°55.806 126.5 5.5 116 4.8
2005-05-24 14:48:47 51°13.656 2°55.921 126.1 5.1 125 11.5
2005-05-24 14:49:46 51°13.621 2°56.036 120.3 4.6 112 -999
2005-05-24 14:50:47 51°13.6 2°56.099 123.8 1.3 115 8.3